createdAt,value
2018-01-11T00:00:48.234Z,6.90
2018-01-11T00:03:15.812Z,6.80
2018-01-11T00:05:43.354Z,6.80
2018-01-11T00:08:11.856Z,6.80
2018-01-11T00:10:39.404Z,6.80
2018-01-11T00:13:06.952Z,6.80
2018-01-11T00:15:34.532Z,6.80
2018-01-11T00:18:02.086Z,6.70
2018-01-11T00:20:29.655Z,6.70
2018-01-11T00:22:57.205Z,6.70
2018-01-11T00:25:24.784Z,6.70
2018-01-11T00:27:52.328Z,6.70
2018-01-11T00:30:19.919Z,6.60
2018-01-11T00:32:47.514Z,6.70
2018-01-11T00:35:15.824Z,6.60
2018-01-11T00:37:43.408Z,6.60
2018-01-11T00:40:11.040Z,6.60
2018-01-11T00:42:38.578Z,6.60
2018-01-11T00:45:06.920Z,6.60
2018-01-11T00:47:34.483Z,6.50
2018-01-11T00:50:02.831Z,6.50
2018-01-11T00:52:30.371Z,6.50
2018-01-11T00:54:57.949Z,6.60
2018-01-11T00:57:25.522Z,6.50
2018-01-11T00:59:53.061Z,6.50
2018-01-11T01:02:20.636Z,6.50
2018-01-11T01:04:48.180Z,6.50
2018-01-11T01:07:15.754Z,6.40
2018-01-11T01:09:43.292Z,6.40
2018-01-11T01:12:10.995Z,6.40
2018-01-11T01:14:38.541Z,6.40
2018-01-11T01:17:06.080Z,6.40
2018-01-11T01:19:33.656Z,6.40
2018-01-11T01:22:01.237Z,6.40
2018-01-11T01:24:28.806Z,6.40
2018-01-11T01:26:56.351Z,6.30
2018-01-11T01:29:23.932Z,6.30
2018-01-11T01:31:51.472Z,6.30
2018-01-11T01:34:19.047Z,6.30
2018-01-11T01:36:48.100Z,6.30
2018-01-11T01:39:15.671Z,6.30
2018-01-11T01:41:43.220Z,6.20
2018-01-11T01:44:10.803Z,6.20
2018-01-11T01:46:38.348Z,6.20
2018-01-11T01:49:05.892Z,6.20
2018-01-11T01:51:33.471Z,6.20
2018-01-11T01:54:01.061Z,6.20
2018-01-11T01:56:28.608Z,6.20
2018-01-11T01:58:56.152Z,6.20
2018-01-11T02:01:23.820Z,6.20
2018-01-11T02:03:51.364Z,6.20
2018-01-11T02:06:18.902Z,6.10
2018-01-11T02:08:46.484Z,6.10
2018-01-11T02:11:14.066Z,6.10
2018-01-11T02:13:41.607Z,6.10
2018-01-11T02:16:09.192Z,6.10
2018-01-11T02:18:36.730Z,6.10
2018-01-11T02:21:04.275Z,6.10
2018-01-11T02:23:31.856Z,6.00
2018-01-11T02:25:59.440Z,6.00
2018-01-11T02:28:26.983Z,6.00
2018-01-11T02:30:54.524Z,6.00
2018-01-11T02:33:22.108Z,6.00
2018-01-11T02:35:49.683Z,5.90
2018-01-11T02:38:17.225Z,6.00
2018-01-11T02:40:44.816Z,6.00
2018-01-11T02:43:13.129Z,5.90
2018-01-11T02:45:40.711Z,5.90
2018-01-11T02:48:08.244Z,5.90
2018-01-11T02:50:35.785Z,5.90
2018-01-11T02:53:04.124Z,5.90
2018-01-11T02:55:31.664Z,5.90
2018-01-11T02:57:59.239Z,5.80
2018-01-11T03:00:28.727Z,5.80
2018-01-11T03:02:56.308Z,5.80
2018-01-11T03:05:23.847Z,5.80
2018-01-11T03:07:51.388Z,5.80
2018-01-11T03:10:18.954Z,5.80
2018-01-11T03:12:46.496Z,5.80
2018-01-11T03:15:14.079Z,5.80
2018-01-11T03:17:41.625Z,5.80
2018-01-11T03:20:09.203Z,5.70
2018-01-11T03:22:36.744Z,5.70
2018-01-11T03:25:04.337Z,5.70
2018-01-11T03:27:31.881Z,5.70
2018-01-11T03:29:59.422Z,5.70
2018-01-11T03:32:26.995Z,5.70
2018-01-11T03:34:54.536Z,5.70
2018-01-11T03:37:22.121Z,5.70
2018-01-11T03:39:49.657Z,5.60
2018-01-11T03:42:17.223Z,5.60
2018-01-11T03:44:44.814Z,5.60
2018-01-11T03:47:12.362Z,5.60
2018-01-11T03:49:39.898Z,5.60
2018-01-11T03:52:07.485Z,5.60
2018-01-11T03:54:35.018Z,5.60
2018-01-11T03:57:02.547Z,5.60
2018-01-11T03:59:30.908Z,5.60
2018-01-11T04:01:59.213Z,5.60
2018-01-11T04:04:27.525Z,5.50
2018-01-11T04:06:55.109Z,5.50
2018-01-11T04:09:22.652Z,5.50
2018-01-11T04:11:50.224Z,5.50
2018-01-11T04:14:17.803Z,5.50
2018-01-11T04:16:45.389Z,5.50
2018-01-11T04:19:13.691Z,5.50
2018-01-11T04:21:41.263Z,5.50
2018-01-11T04:24:08.808Z,5.40
2018-01-11T04:26:36.385Z,5.40
2018-01-11T04:29:03.957Z,5.50
2018-01-11T04:31:31.507Z,5.40
2018-01-11T04:33:59.084Z,5.40
2018-01-11T04:36:26.651Z,5.40
2018-01-11T04:38:54.287Z,5.40
2018-01-11T04:41:21.823Z,5.40
2018-01-11T04:43:49.366Z,5.40
2018-01-11T04:46:17.707Z,5.40
2018-01-11T04:48:45.271Z,5.30
2018-01-11T04:51:12.810Z,5.30
2018-01-11T04:53:40.423Z,5.30
2018-01-11T04:56:08.724Z,5.30
2018-01-11T04:58:36.269Z,5.30
2018-01-11T05:01:03.856Z,5.30
2018-01-11T05:03:31.390Z,5.30
2018-01-11T05:05:58.935Z,5.30
2018-01-11T05:08:27.271Z,5.30
2018-01-11T05:10:54.811Z,5.30
2018-01-11T05:13:22.346Z,5.30
2018-01-11T05:15:49.930Z,5.30
2018-01-11T05:18:17.523Z,5.20
2018-01-11T05:20:45.068Z,5.20
2018-01-11T05:23:12.637Z,5.20
2018-01-11T05:25:40.200Z,5.20
2018-01-11T05:28:07.833Z,5.20
2018-01-11T05:30:35.367Z,5.20
2018-01-11T05:33:02.948Z,5.20
2018-01-11T05:35:30.529Z,5.20
2018-01-11T05:37:58.104Z,5.20
2018-01-11T05:40:25.686Z,5.20
2018-01-11T05:42:53.990Z,5.10
2018-01-11T05:45:21.566Z,5.10
2018-01-11T05:47:49.104Z,5.10
2018-01-11T05:50:16.683Z,5.10
2018-01-11T05:52:44.218Z,5.10
2018-01-11T05:55:12.561Z,5.10
2018-01-11T05:57:40.138Z,5.10
2018-01-11T06:00:08.480Z,5.10
2018-01-11T06:02:36.025Z,5.10
2018-01-11T06:05:03.601Z,5.10
2018-01-11T06:07:31.141Z,5.00
2018-01-11T06:09:58.724Z,5.10
2018-01-11T06:12:26.263Z,5.00
2018-01-11T06:14:53.795Z,5.00
2018-01-11T06:17:22.151Z,5.00
2018-01-11T06:19:50.453Z,5.00
2018-01-11T06:22:17.986Z,4.90
2018-01-11T06:24:45.568Z,5.00
2018-01-11T06:27:13.882Z,5.00
2018-01-11T06:29:41.437Z,4.90
2018-01-11T06:32:09.012Z,4.90
2018-01-11T06:34:36.556Z,4.90
2018-01-11T06:37:04.136Z,4.90
2018-01-11T06:39:31.894Z,4.90
2018-01-11T06:41:59.439Z,4.90
2018-01-11T06:44:27.013Z,4.90
2018-01-11T06:46:54.659Z,4.90
2018-01-11T06:49:22.231Z,4.90
2018-01-11T06:51:49.798Z,4.90
2018-01-11T06:54:17.376Z,4.90
2018-01-11T06:56:44.920Z,4.90
2018-01-11T06:59:12.575Z,4.80
2018-01-11T07:01:40.112Z,4.80
2018-01-11T07:04:07.678Z,4.80
2018-01-11T07:06:35.275Z,4.80
2018-01-11T07:09:02.850Z,4.80
2018-01-11T07:11:31.164Z,4.80
2018-01-11T07:13:58.737Z,4.80
2018-01-11T07:16:26.267Z,4.80
2018-01-11T07:18:54.603Z,4.80
2018-01-11T07:21:22.140Z,4.80
2018-01-11T07:23:49.675Z,4.70
2018-01-11T07:26:17.374Z,4.70
2018-01-11T07:28:44.961Z,4.70
2018-01-11T07:31:12.472Z,4.70
2018-01-11T07:33:40.041Z,4.70
2018-01-11T07:36:07.609Z,4.70
2018-01-11T07:38:35.152Z,4.70
2018-01-11T07:41:02.748Z,4.70
2018-01-11T07:43:30.289Z,4.70
2018-01-11T07:45:57.833Z,4.70
2018-01-11T07:48:25.405Z,4.70
2018-01-11T07:50:52.940Z,4.70
2018-01-11T07:53:20.513Z,4.70
2018-01-11T07:55:48.052Z,4.70
2018-01-11T07:58:15.629Z,4.70
2018-01-11T08:00:43.164Z,4.70
2018-01-11T08:03:10.705Z,4.70
2018-01-11T08:05:39.055Z,4.60
2018-01-11T08:08:06.635Z,4.60
2018-01-11T08:10:34.214Z,4.60
2018-01-11T08:13:01.779Z,4.70
2018-01-11T08:15:29.319Z,4.70
2018-01-11T08:17:57.627Z,4.60
2018-01-11T08:20:25.221Z,4.60
2018-01-11T08:22:52.768Z,4.10
2018-01-11T08:25:20.307Z,4.10
2018-01-11T08:27:47.907Z,4.20
2018-01-11T08:30:15.500Z,4.20
2018-01-11T08:32:43.849Z,4.30
2018-01-11T08:35:11.432Z,4.30
2018-01-11T08:37:39.765Z,4.40
2018-01-11T08:40:07.304Z,4.30
2018-01-11T08:42:34.981Z,4.40
2018-01-11T08:45:02.551Z,4.40
2018-01-11T08:47:30.085Z,4.30
2018-01-11T08:49:57.671Z,4.30
2018-01-11T08:52:25.265Z,4.40
2018-01-11T08:54:52.803Z,4.40
2018-01-11T08:57:20.339Z,4.40
2018-01-11T08:59:48.001Z,4.30
2018-01-11T09:02:15.580Z,4.30
2018-01-11T09:04:43.123Z,4.30
2018-01-11T09:07:10.708Z,4.30
2018-01-11T09:09:38.244Z,4.30
2018-01-11T09:12:05.833Z,4.40
2018-01-11T09:14:33.437Z,4.30
2018-01-11T09:17:00.983Z,4.30
2018-01-11T09:19:29.285Z,4.30
2018-01-11T09:21:56.881Z,4.30
2018-01-11T09:24:24.434Z,4.30
2018-01-11T09:26:51.979Z,4.30
2018-01-11T09:29:19.554Z,4.30
2018-01-11T09:31:47.088Z,4.30
2018-01-11T09:34:14.671Z,4.40
2018-01-11T09:36:42.220Z,4.30
2018-01-11T09:39:09.803Z,4.30
2018-01-11T09:41:37.339Z,4.30
2018-01-11T09:44:04.920Z,4.30
2018-01-11T09:46:32.463Z,4.40
2018-01-11T09:49:00.044Z,4.30
2018-01-11T09:51:27.630Z,4.40
2018-01-11T09:53:55.935Z,4.40
2018-01-11T09:56:23.532Z,4.30
2018-01-11T09:58:51.071Z,4.30
2018-01-11T10:01:18.609Z,4.30
2018-01-11T10:03:46.193Z,4.30
2018-01-11T10:06:13.782Z,4.30
2018-01-11T10:08:41.329Z,4.30
2018-01-11T10:11:08.873Z,4.30
2018-01-11T10:13:36.471Z,4.30
2018-01-11T10:16:04.011Z,4.30
2018-01-11T10:18:31.548Z,4.30
2018-01-11T10:20:59.126Z,4.40
2018-01-11T10:23:26.772Z,4.30
2018-01-11T10:25:54.337Z,4.30
2018-01-11T10:28:21.925Z,4.30
2018-01-11T10:30:49.471Z,4.30
2018-01-11T10:33:17.019Z,4.30
2018-01-11T10:35:44.606Z,4.30
2018-01-11T10:38:12.194Z,4.40
2018-01-11T10:40:40.493Z,4.30
2018-01-11T10:43:08.058Z,4.40
2018-01-11T10:45:35.601Z,4.30
2018-01-11T10:48:03.183Z,4.30
2018-01-11T10:50:30.768Z,4.30
2018-01-11T10:52:58.319Z,4.30
2018-01-11T10:55:25.900Z,4.30
2018-01-11T10:57:53.484Z,4.40
2018-01-11T11:00:21.834Z,4.40
2018-01-11T11:02:49.375Z,4.40
2018-01-11T11:05:16.953Z,4.40
2018-01-11T11:07:44.492Z,4.40
2018-01-11T11:10:12.075Z,4.40
2018-01-11T11:12:39.608Z,4.40
2018-01-11T11:15:07.197Z,4.40
2018-01-11T11:17:34.788Z,4.40
2018-01-11T11:20:03.171Z,4.40
2018-01-11T11:22:31.480Z,4.40
2018-01-11T11:24:59.020Z,4.40
2018-01-11T11:27:26.609Z,4.40
2018-01-11T11:29:54.149Z,4.40
2018-01-11T11:32:21.694Z,4.40
2018-01-11T11:34:49.278Z,4.40
2018-01-11T11:37:16.869Z,4.40
2018-01-11T11:39:44.593Z,4.40
2018-01-11T11:42:12.138Z,4.40
2018-01-11T11:44:39.726Z,4.40
2018-01-11T11:47:07.310Z,4.40
2018-01-11T11:49:34.906Z,4.40
2018-01-11T11:52:02.520Z,4.40
2018-01-11T11:54:30.064Z,4.40
2018-01-11T11:56:57.640Z,4.40
2018-01-11T11:59:25.175Z,4.40
2018-01-11T12:01:52.758Z,4.50
2018-01-11T12:04:20.308Z,4.40
2018-01-11T12:06:47.892Z,4.50
2018-01-11T12:09:15.424Z,4.40
2018-01-11T12:11:43.012Z,4.50
2018-01-11T12:14:10.577Z,4.40
2018-01-11T12:16:38.115Z,4.40
2018-01-11T12:19:05.706Z,4.40
2018-01-11T12:21:34.027Z,4.50
2018-01-11T12:24:01.628Z,4.40
2018-01-11T12:26:29.175Z,4.50
2018-01-11T12:28:56.729Z,4.50
2018-01-11T12:31:24.334Z,4.40
2018-01-11T12:33:52.639Z,4.50
2018-01-11T12:36:20.179Z,4.50
2018-01-11T12:38:48.532Z,4.50
2018-01-11T12:41:16.077Z,4.50
2018-01-11T12:43:43.666Z,4.50
2018-01-11T12:46:11.968Z,4.50
2018-01-11T12:48:39.561Z,4.50
2018-01-11T12:51:07.105Z,4.50
2018-01-11T12:53:34.692Z,4.50
2018-01-11T12:56:02.280Z,4.50
2018-01-11T12:58:30.591Z,4.50
2018-01-11T13:00:58.175Z,4.50
2018-01-11T13:03:25.720Z,4.50
2018-01-11T13:05:53.316Z,4.50
2018-01-11T13:08:20.857Z,4.50
2018-01-11T13:10:48.396Z,4.50
2018-01-11T13:13:15.953Z,4.50
2018-01-11T13:15:43.493Z,4.50
2018-01-11T13:18:11.849Z,4.50
2018-01-11T13:20:40.210Z,4.50
2018-01-11T13:23:07.747Z,4.50
2018-01-11T13:25:35.335Z,4.50
2018-01-11T13:28:02.870Z,4.50
2018-01-11T13:30:30.449Z,4.50
2018-01-11T13:32:58.036Z,4.50
2018-01-11T13:35:26.383Z,4.50
2018-01-11T13:37:53.924Z,4.50
2018-01-11T13:40:21.582Z,4.50
2018-01-11T13:42:49.172Z,4.50
2018-01-11T13:45:16.710Z,4.50
2018-01-11T13:47:45.937Z,4.50
2018-01-11T13:50:13.480Z,4.50
2018-01-11T13:52:41.024Z,4.50
2018-01-11T13:55:08.612Z,4.50
2018-01-11T13:57:36.198Z,4.60
2018-01-11T14:00:04.557Z,4.50
2018-01-11T14:02:32.152Z,4.50
2018-01-11T14:04:59.690Z,4.50
2018-01-11T14:07:27.995Z,4.50
2018-01-11T14:09:55.580Z,4.50
2018-01-11T14:12:23.136Z,4.50
2018-01-11T14:14:50.723Z,4.50
2018-01-11T14:17:18.258Z,4.50
2018-01-11T14:19:45.813Z,4.50
2018-01-11T14:22:13.404Z,4.50
2018-01-11T14:24:40.954Z,4.50
2018-01-11T14:27:08.541Z,4.50
2018-01-11T14:29:36.418Z,4.50
2018-01-11T14:32:04.767Z,4.50
2018-01-11T14:34:32.306Z,4.50
2018-01-11T14:36:59.891Z,4.60
2018-01-11T14:39:27.432Z,4.50
2018-01-11T14:41:54.996Z,4.50
2018-01-11T14:44:22.577Z,4.50
2018-01-11T14:46:50.128Z,4.50
2018-01-11T14:49:17.717Z,4.60
2018-01-11T14:51:46.035Z,4.60
2018-01-11T14:54:13.635Z,4.50
2018-01-11T14:56:41.175Z,4.50
2018-01-11T14:59:08.725Z,4.50
2018-01-11T15:01:36.313Z,4.50
2018-01-11T15:04:03.856Z,5.50
2018-01-11T15:06:31.443Z,6.70
2018-01-11T15:08:59.771Z,8.70
2018-01-11T15:11:27.352Z,8.70
2018-01-11T15:13:54.928Z,9.20
2018-01-11T15:16:22.464Z,9.60
2018-01-11T15:18:50.036Z,9.90
2018-01-11T15:21:17.589Z,10.10
2018-01-11T15:23:45.203Z,10.10
2018-01-11T15:26:13.514Z,10.30
2018-01-11T15:28:41.102Z,10.30
2018-01-11T15:31:08.900Z,10.40
2018-01-11T15:33:37.316Z,10.60
2018-01-11T15:36:04.883Z,10.60
2018-01-11T15:38:32.537Z,10.60
2018-01-11T15:41:00.115Z,10.70
2018-01-11T15:43:27.702Z,10.60
2018-01-11T15:45:55.246Z,10.60
2018-01-11T15:48:22.836Z,10.70
2018-01-11T15:50:51.148Z,10.70
2018-01-11T15:53:18.735Z,10.60
2018-01-11T15:55:46.279Z,10.60
2018-01-11T15:58:14.031Z,10.60
2018-01-11T16:00:41.576Z,10.60
2018-01-11T16:03:09.158Z,10.60
2018-01-11T16:05:36.750Z,10.50
2018-01-11T16:08:04.335Z,10.50
2018-01-11T16:10:32.646Z,10.40
2018-01-11T16:13:00.244Z,10.50
2018-01-11T16:15:27.783Z,10.40
2018-01-11T16:17:55.323Z,10.40
2018-01-11T16:20:22.908Z,10.30
2018-01-11T16:22:50.454Z,10.30
2018-01-11T16:25:18.083Z,10.30
2018-01-11T16:27:45.595Z,10.30
2018-01-11T16:30:13.181Z,10.20
2018-01-11T16:32:40.726Z,10.20
2018-01-11T16:35:09.082Z,10.20
2018-01-11T16:37:36.633Z,10.20
2018-01-11T16:40:04.211Z,10.20
2018-01-11T16:42:31.755Z,10.10
2018-01-11T16:44:59.330Z,10.10
2018-01-11T16:47:26.922Z,10.10
2018-01-11T16:49:55.229Z,10.00
2018-01-11T16:52:22.775Z,10.00
2018-01-11T16:54:51.133Z,10.00
2018-01-11T16:57:18.733Z,10.00
2018-01-11T16:59:46.277Z,9.90
2018-01-11T17:02:14.625Z,9.80
2018-01-11T17:04:42.177Z,9.80
2018-01-11T17:07:09.728Z,9.80
2018-01-11T17:09:37.303Z,9.80
2018-01-11T17:12:04.855Z,9.80
2018-01-11T17:14:32.436Z,9.70
2018-01-11T17:16:59.978Z,9.70
2018-01-11T17:19:29.072Z,9.60
2018-01-11T17:21:56.624Z,9.60
2018-01-11T17:24:24.215Z,9.60
2018-01-11T17:26:51.747Z,9.60
2018-01-11T17:29:19.325Z,9.60
2018-01-11T17:31:46.859Z,9.60
2018-01-11T17:34:14.439Z,9.50
2018-01-11T17:36:41.978Z,9.60
2018-01-11T17:39:09.570Z,9.50
2018-01-11T17:41:37.116Z,9.50
2018-01-11T17:44:04.742Z,9.50
2018-01-11T17:46:32.280Z,9.40
2018-01-11T17:48:59.855Z,9.40
2018-01-11T17:51:27.427Z,9.30
2018-01-11T17:53:54.963Z,9.30
2018-01-11T17:56:22.536Z,9.30
2018-01-11T17:58:50.068Z,9.30
2018-01-11T18:01:18.404Z,9.20
2018-01-11T18:03:45.938Z,9.20
2018-01-11T18:06:13.519Z,9.20
2018-01-11T18:08:41.159Z,9.20
2018-01-11T18:11:08.741Z,9.20
2018-01-11T18:13:36.281Z,9.10
2018-01-11T18:16:03.857Z,9.10
2018-01-11T18:18:31.394Z,9.10
2018-01-11T18:20:58.981Z,9.10
2018-01-11T18:23:26.532Z,9.10
2018-01-11T18:25:54.114Z,9.10
2018-01-11T18:28:21.657Z,9.00
2018-01-11T18:30:49.236Z,9.00
2018-01-11T18:33:16.825Z,9.00
2018-01-11T18:35:44.390Z,9.00
2018-01-11T18:38:11.932Z,8.90
2018-01-11T18:40:40.270Z,8.90
2018-01-11T18:43:07.808Z,8.90
2018-01-11T18:45:35.391Z,8.80
2018-01-11T18:48:02.927Z,8.80
2018-01-11T18:50:30.503Z,8.80
2018-01-11T18:52:58.031Z,8.80
2018-01-11T18:55:25.615Z,8.70
2018-01-11T18:57:53.142Z,8.70
2018-01-11T19:00:21.483Z,8.70
2018-01-11T19:02:49.019Z,8.70
2018-01-11T19:05:16.595Z,8.70
2018-01-11T19:07:44.127Z,8.70
2018-01-11T19:10:11.710Z,8.70
2018-01-11T19:12:39.246Z,8.60
2018-01-11T19:15:06.829Z,8.60
2018-01-11T19:17:34.366Z,8.60
2018-01-11T19:20:01.899Z,8.50
2018-01-11T19:22:30.253Z,8.50
2018-01-11T19:24:58.565Z,8.50
2018-01-11T19:27:26.164Z,8.50
2018-01-11T19:29:53.704Z,8.50
2018-01-11T19:32:21.307Z,8.40
2018-01-11T19:34:48.888Z,8.50
2018-01-11T19:37:17.196Z,8.40
2018-01-11T19:39:44.787Z,8.40
2018-01-11T19:42:12.315Z,8.30
2018-01-11T19:44:39.896Z,8.30
2018-01-11T19:47:07.431Z,8.30
2018-01-11T19:49:35.010Z,8.30
2018-01-11T19:52:02.559Z,8.30
2018-01-11T19:54:30.222Z,8.30
2018-01-11T19:56:57.757Z,8.30
2018-01-11T19:59:25.339Z,8.20
2018-01-11T20:01:52.912Z,8.20
2018-01-11T20:04:20.497Z,8.20
2018-01-11T20:06:48.042Z,8.10
2018-01-11T20:09:15.623Z,8.10
2018-01-11T20:11:43.166Z,8.10
2018-01-11T20:14:10.745Z,8.10
2018-01-11T20:16:38.334Z,8.10
2018-01-11T20:19:06.197Z,8.00
2018-01-11T20:21:34.506Z,8.00
2018-01-11T20:24:02.044Z,8.00
2018-01-11T20:26:29.620Z,8.00
2018-01-11T20:28:57.163Z,8.00
2018-01-11T20:31:24.745Z,7.90
2018-01-11T20:33:52.413Z,7.90
2018-01-11T20:36:20.041Z,7.90
2018-01-11T20:38:47.636Z,7.90
2018-01-11T20:41:15.212Z,7.90
2018-01-11T20:43:42.757Z,7.90
2018-01-11T20:46:10.333Z,7.90
2018-01-11T20:48:37.870Z,7.80
2018-01-11T20:51:05.530Z,7.80
2018-01-11T20:53:33.110Z,7.80
2018-01-11T20:56:00.698Z,7.70
2018-01-11T20:58:29.053Z,7.70
2018-01-11T21:01:03.303Z,7.70
2018-01-11T21:03:31.607Z,7.70
2018-01-11T21:05:59.285Z,7.70
2018-01-11T21:08:26.869Z,7.60
2018-01-11T21:10:54.454Z,7.60
2018-01-11T21:13:22.036Z,7.60
2018-01-11T21:15:50.376Z,7.60
2018-01-11T21:18:17.913Z,7.50
2018-01-11T21:20:45.482Z,7.50
2018-01-11T21:23:13.034Z,7.50
2018-01-11T21:25:40.658Z,7.50
2018-01-11T21:28:08.259Z,7.50
2018-01-11T21:30:35.839Z,7.50
2018-01-11T21:33:03.387Z,7.50
2018-01-11T21:35:30.969Z,7.40
2018-01-11T21:37:58.516Z,7.40
2018-01-11T21:40:26.141Z,7.40
2018-01-11T21:42:53.695Z,7.40
2018-01-11T21:45:21.320Z,7.30
2018-01-11T21:47:50.376Z,7.30
2018-01-11T21:50:18.009Z,7.40
2018-01-11T21:52:45.551Z,7.40
2018-01-11T21:55:13.891Z,7.30
2018-01-11T21:57:41.436Z,7.30
2018-01-11T22:00:09.025Z,7.30
2018-01-11T22:02:36.571Z,7.20
2018-01-11T22:05:04.152Z,7.30
2018-01-11T22:07:32.499Z,7.20
2018-01-11T22:10:00.089Z,7.20
2018-01-11T22:12:28.452Z,7.10
2018-01-11T22:14:56.053Z,7.10
2018-01-11T22:17:23.589Z,7.10
2018-01-11T22:19:51.933Z,7.10
2018-01-11T22:22:19.479Z,7.10
2018-01-11T22:24:47.063Z,7.10
2018-01-11T22:27:14.608Z,7.10
2018-01-11T22:29:42.192Z,7.10
2018-01-11T22:32:09.730Z,7.00
2018-01-11T22:34:37.312Z,7.00
2018-01-11T22:37:04.854Z,7.00
2018-01-11T22:39:32.443Z,7.00
2018-01-11T22:41:59.980Z,7.00
2018-01-11T22:44:27.562Z,7.00
2018-01-11T22:46:55.882Z,6.90
2018-01-11T22:49:23.471Z,6.90
2018-01-11T22:51:51.013Z,6.90
2018-01-11T22:54:18.599Z,6.90
2018-01-11T22:56:46.139Z,6.90
2018-01-11T22:59:13.720Z,6.90
2018-01-11T23:01:42.772Z,6.80
2018-01-11T23:04:10.352Z,6.80
2018-01-11T23:06:37.903Z,6.90
2018-01-11T23:09:05.488Z,6.80
2018-01-11T23:11:38.693Z,6.80
2018-01-11T23:14:06.279Z,6.80
2018-01-11T23:16:34.588Z,6.70
2018-01-11T23:19:02.184Z,6.70
2018-01-11T23:21:29.735Z,6.70
2018-01-11T23:23:57.315Z,6.70
2018-01-11T23:26:24.857Z,6.70
2018-01-11T23:28:52.443Z,6.70
2018-01-11T23:31:20.752Z,6.60
2018-01-11T23:33:48.338Z,6.60
2018-01-11T23:36:15.891Z,6.70
2018-01-11T23:38:43.481Z,6.70
2018-01-11T23:41:11.023Z,6.60
2018-01-11T23:43:38.604Z,6.60
2018-01-11T23:46:06.143Z,6.60
2018-01-11T23:48:33.727Z,6.60
2018-01-11T23:51:01.267Z,6.50
2018-01-11T23:53:28.848Z,6.50
2018-01-11T23:55:56.405Z,6.50
2018-01-11T23:58:23.988Z,6.50
